sensor_id;sensor_type;location;lat;lon;timestamp;pressure;altitude;pressure_sealevel;temperature;humidity
23253;BME280;11795;47.054;15.408;2023-03-03T00:00:03;97470;;;6.4;69.4
23253;BME280;11795;47.054;15.408;2023-03-03T00:02:01;97480;;;6.5;69.3
23253;BME280;11795;47.054;15.408;2023-03-03T00:04:00;97480;;;6.4;69.4
23253;BME280;11795;47.054;15.408;2023-03-03T00:06:02;97480;;;6.4;69.8
23253;BME280;11795;47.054;15.408;2023-03-03T00:08:01;97480;;;6.5;69.4
23253;BME280;11795;47.054;15.408;2023-03-03T00:10:00;97480;;;6.4;69.9
23253;BME280;11795;47.054;15.408;2023-03-03T00:12:02;97470;;;6.5;69.9
23253;BME280;11795;47.054;15.408;2023-03-03T00:14:00;97480;;;6.4;69.9
23253;BME280;11795;47.054;15.408;2023-03-03T00:16:12;97470;;;6.3;70.3
23253;BME280;11795;47.054;15.408;2023-03-03T00:18:09;97470;;;6.5;69.8
23253;BME280;11795;47.054;15.408;2023-03-03T00:20:01;97470;;;6.3;70.5
23253;BME280;11795;47.054;15.408;2023-03-03T00:22:00;97480;;;6.4;70.6
23253;BME280;11795;47.054;15.408;2023-03-03T00:24:14;97470;;;6.3;70.7
23253;BME280;11795;47.054;15.408;2023-03-03T00:26:01;97470;;;6.2;71.1
23253;BME280;11795;47.054;15.408;2023-03-03T00:28:00;97470;;;6.4;70.4
23253;BME280;11795;47.054;15.408;2023-03-03T00:30:01;97470;;;6.3;70.9
23253;BME280;11795;47.054;15.408;2023-03-03T00:34:15;97470;;;6.3;71.0
23253;BME280;11795;47.054;15.408;2023-03-03T00:36:20;97470;;;6.2;72.1
23253;BME280;11795;47.054;15.408;2023-03-03T00:38:09;97460;;;6.3;71.6
23253;BME280;11795;47.054;15.408;2023-03-03T00:40:14;97460;;;6.2;72.1
23253;BME280;11795;47.054;15.408;2023-03-03T00:42:09;97470;;;6.3;72.0
23253;BME280;11795;47.054;15.408;2023-03-03T00:46:00;97460;;;6.1;73.1
23253;BME280;11795;47.054;15.408;2023-03-03T00:48:15;97460;;;6.3;73.1
23253;BME280;11795;47.054;15.408;2023-03-03T00:52:00;97460;;;6.2;73.9
23253;BME280;11795;47.054;15.408;2023-03-03T00:54:00;97460;;;6.3;73.9
23253;BME280;11795;47.054;15.408;2023-03-03T00:56:00;97460;;;6.1;74.9
23253;BME280;11795;47.054;15.408;2023-03-03T00:58:01;97450;;;6.2;74.8
23253;BME280;11795;47.054;15.408;2023-03-03T01:00:00;97450;;;6.2;75.3
23253;BME280;11795;47.054;15.408;2023-03-03T01:02:00;97450;;;6.2;75.7
23253;BME280;11795;47.054;15.408;2023-03-03T01:04:00;97440;;;6.1;75.9
23253;BME280;11795;47.054;15.408;2023-03-03T01:06:00;97440;;;6.0;76.6
23253;BME280;11795;47.054;15.408;2023-03-03T01:08:01;97440;;;6.1;76.5
23253;BME280;11795;47.054;15.408;2023-03-03T01:10:00;97440;;;6.0;77.0
23253;BME280;11795;47.054;15.408;2023-03-03T01:12:00;97440;;;6.0;77.0
23253;BME280;11795;47.054;15.408;2023-03-03T01:14:00;97430;;;6.1;76.8
23253;BME280;11795;47.054;15.408;2023-03-03T01:16:01;97430;;;6.0;77.2
23253;BME280;11795;47.054;15.408;2023-03-03T01:18:00;97430;;;6.2;76.5
23253;BME280;11795;47.054;15.408;2023-03-03T01:20:00;97420;;;6.0;77.2
23253;BME280;11795;47.054;15.408;2023-03-03T01:22:00;97420;;;6.0;77.3
23253;BME280;11795;47.054;15.408;2023-03-03T01:24:00;97420;;;6.0;77.4
23253;BME280;11795;47.054;15.408;2023-03-03T01:26:00;97420;;;5.9;77.9
23253;BME280;11795;47.054;15.408;2023-03-03T01:28:00;97420;;;6.1;77.4
23253;BME280;11795;47.054;15.408;2023-03-03T01:30:01;97420;;;5.9;78.1
23253;BME280;11795;47.054;15.408;2023-03-03T01:32:00;97420;;;5.9;78.4
23253;BME280;11795;47.054;15.408;2023-03-03T01:34:00;97420;;;5.9;78.5
23253;BME280;11795;47.054;15.408;2023-03-03T01:36:00;97420;;;5.9;78.8
23253;BME280;11795;47.054;15.408;2023-03-03T01:38:00;97420;;;6.1;78.3
23253;BME280;11795;47.054;15.408;2023-03-03T01:40:00;97410;;;5.9;79.0
23253;BME280;11795;47.054;15.408;2023-03-03T01:42:02;97420;;;5.9;79.3
23253;BME280;11795;47.054;15.408;2023-03-03T01:44:00;97420;;;5.9;79.2
23253;BME280;11795;47.054;15.408;2023-03-03T01:48:03;97420;;;6.0;79.5
23253;BME280;11795;47.054;15.408;2023-03-03T01:50:03;97410;;;5.9;80.3
23253;BME280;11795;47.054;15.408;2023-03-03T01:52:02;97420;;;5.9;80.4
23253;BME280;11795;47.054;15.408;2023-03-03T01:54:02;97420;;;5.9;80.9
23253;BME280;11795;47.054;15.408;2023-03-03T01:56:02;97410;;;5.9;81.1
23253;BME280;11795;47.054;15.408;2023-03-03T01:58:04;97410;;;6.1;80.6
23253;BME280;11795;47.054;15.408;2023-03-03T02:00:01;97410;;;5.9;81.3
23253;BME280;11795;47.054;15.408;2023-03-03T02:02:00;97410;;;5.9;81.6
23253;BME280;11795;47.054;15.408;2023-03-03T02:04:01;97410;;;5.9;82.1
23253;BME280;11795;47.054;15.408;2023-03-03T02:06:03;97410;;;5.8;82.8
23253;BME280;11795;47.054;15.408;2023-03-03T02:08:00;97410;;;6.0;82.4
23253;BME280;11795;47.054;15.408;2023-03-03T02:10:04;97410;;;5.8;83.4
23253;BME280;11795;47.054;15.408;2023-03-03T02:12:04;97410;;;5.8;83.7
23253;BME280;11795;47.054;15.408;2023-03-03T02:14:00;97400;;;5.9;83.2
23253;BME280;11795;47.054;15.408;2023-03-03T02:16:00;97400;;;5.8;83.9
23253;BME280;11795;47.054;15.408;2023-03-03T02:18:03;97400;;;5.9;83.7
23253;BME280;11795;47.054;15.408;2023-03-03T02:20:06;97400;;;5.8;84.1
23253;BME280;11795;47.054;15.408;2023-03-03T02:22:02;97390;;;5.8;84.5
23253;BME280;11795;47.054;15.408;2023-03-03T02:24:04;97390;;;5.8;84.0
23253;BME280;11795;47.054;15.408;2023-03-03T02:26:06;97390;;;5.7;85.1
23253;BME280;11795;47.054;15.408;2023-03-03T02:28:00;97390;;;5.9;84.4
23253;BME280;11795;47.054;15.408;2023-03-03T02:30:12;97390;;;5.7;84.6
23253;BME280;11795;47.054;15.408;2023-03-03T02:32:00;97390;;;5.7;84.9
23253;BME280;11795;47.054;15.408;2023-03-03T02:34:00;97390;;;5.8;84.8
23253;BME280;11795;47.054;15.408;2023-03-03T02:36:00;97390;;;5.7;85.4
23253;BME280;11795;47.054;15.408;2023-03-03T02:38:09;97390;;;5.8;84.9
23253;BME280;11795;47.054;15.408;2023-03-03T02:40:01;97390;;;5.7;85.2
23253;BME280;11795;47.054;15.408;2023-03-03T02:42:03;97390;;;5.7;85.3
23253;BME280;11795;47.054;15.408;2023-03-03T02:44:02;97390;;;5.8;84.8
23253;BME280;11795;47.054;15.408;2023-03-03T02:46:00;97380;;;5.7;85.1
23253;BME280;11795;47.054;15.408;2023-03-03T02:48:00;97380;;;5.8;84.5
23253;BME280;11795;47.054;15.408;2023-03-03T02:50:00;97390;;;5.7;84.8
23253;BME280;11795;47.054;15.408;2023-03-03T02:52:01;97380;;;5.6;85.1
23253;BME280;11795;47.054;15.408;2023-03-03T02:54:01;97380;;;5.8;84.5
23253;BME280;11795;47.054;15.408;2023-03-03T02:56:00;97380;;;5.7;84.8
23253;BME280;11795;47.054;15.408;2023-03-03T02:58:00;97370;;;5.9;84.1
23253;BME280;11795;47.054;15.408;2023-03-03T03:00:00;97370;;;5.7;84.4
23253;BME280;11795;47.054;15.408;2023-03-03T03:02:00;97370;;;5.6;84.7
23253;BME280;11795;47.054;15.408;2023-03-03T03:04:00;97370;;;5.7;84.0
23253;BME280;11795;47.054;15.408;2023-03-03T03:06:00;97370;;;5.6;84.4
23253;BME280;11795;47.054;15.408;2023-03-03T03:08:00;97370;;;5.8;83.8
23253;BME280;11795;47.054;15.408;2023-03-03T03:10:00;97370;;;5.6;84.2
23253;BME280;11795;47.054;15.408;2023-03-03T03:12:01;97370;;;5.6;84.6
23253;BME280;11795;47.054;15.408;2023-03-03T03:14:00;97370;;;5.7;84.0
23253;BME280;11795;47.054;15.408;2023-03-03T03:16:00;97360;;;5.6;84.4
23253;BME280;11795;47.054;15.408;2023-03-03T03:18:00;97360;;;5.8;83.9
23253;BME280;11795;47.054;15.408;2023-03-03T03:20:00;97360;;;5.6;84.3
23253;BME280;11795;47.054;15.408;2023-03-03T03:22:00;97360;;;5.5;84.6
23253;BME280;11795;47.054;15.408;2023-03-03T03:24:00;97360;;;5.6;84.1
23253;BME280;11795;47.054;15.408;2023-03-03T03:26:00;97360;;;5.5;84.5
23253;BME280;11795;47.054;15.408;2023-03-03T03:28:00;97360;;;5.7;84.2
23253;BME280;11795;47.054;15.408;2023-03-03T03:30:00;97360;;;5.5;84.4
23253;BME280;11795;47.054;15.408;2023-03-03T03:32:00;97360;;;5.5;84.8
23253;BME280;11795;47.054;15.408;2023-03-03T03:34:00;97360;;;5.6;84.2
23253;BME280;11795;47.054;15.408;2023-03-03T03:36:00;97350;;;5.5;84.6
23253;BME280;11795;47.054;15.408;2023-03-03T03:38:00;97350;;;5.7;84.1
23253;BME280;11795;47.054;15.408;2023-03-03T03:40:00;97350;;;5.5;84.4
23253;BME280;11795;47.054;15.408;2023-03-03T03:42:01;97350;;;5.4;85.0
23253;BME280;11795;47.054;15.408;2023-03-03T03:44:00;97350;;;5.5;84.7
23253;BME280;11795;47.054;15.408;2023-03-03T03:46:00;97350;;;5.4;85.1
23253;BME280;11795;47.054;15.408;2023-03-03T03:48:00;97350;;;5.6;84.8
23253;BME280;11795;47.054;15.408;2023-03-03T03:50:00;97350;;;5.4;85.3
23253;BME280;11795;47.054;15.408;2023-03-03T03:52:01;97350;;;5.3;86.0
23253;BME280;11795;47.054;15.408;2023-03-03T03:54:00;97350;;;5.4;85.6
23253;BME280;11795;47.054;15.408;2023-03-03T03:56:00;97350;;;5.3;86.2
23253;BME280;11795;47.054;15.408;2023-03-03T03:58:00;97340;;;5.4;86.0
23253;BME280;11795;47.054;15.408;2023-03-03T04:00:00;97340;;;5.3;86.4
23253;BME280;11795;47.054;15.408;2023-03-03T04:02:00;97340;;;5.2;86.7
23253;BME280;11795;47.054;15.408;2023-03-03T04:04:00;97340;;;5.3;86.0
23253;BME280;11795;47.054;15.408;2023-03-03T04:06:00;97340;;;5.2;86.3
23253;BME280;11795;47.054;15.408;2023-03-03T04:08:00;97340;;;5.4;85.9
23253;BME280;11795;47.054;15.408;2023-03-03T04:10:00;97340;;;5.2;86.4
23253;BME280;11795;47.054;15.408;2023-03-03T04:12:00;97340;;;5.1;86.9
23253;BME280;11795;47.054;15.408;2023-03-03T04:14:00;97340;;;5.2;86.6
23253;BME280;11795;47.054;15.408;2023-03-03T04:16:00;97340;;;5.0;87.2
23253;BME280;11795;47.054;15.408;2023-03-03T04:18:00;97340;;;5.3;86.7
23253;BME280;11795;47.054;15.408;2023-03-03T04:20:01;97340;;;5.1;86.9
23253;BME280;11795;47.054;15.408;2023-03-03T04:22:00;97340;;;5.0;87.3
23253;BME280;11795;47.054;15.408;2023-03-03T04:24:00;97340;;;5.1;86.8
23253;BME280;11795;47.054;15.408;2023-03-03T04:26:00;97340;;;5.0;87.2
23253;BME280;11795;47.054;15.408;2023-03-03T04:28:00;97350;;;5.2;87.0
23253;BME280;11795;47.054;15.408;2023-03-03T04:30:02;97350;;;4.9;87.4
23253;BME280;11795;47.054;15.408;2023-03-03T04:32:00;97340;;;4.9;87.8
23253;BME280;11795;47.054;15.408;2023-03-03T04:34:00;97340;;;5.0;87.4
23253;BME280;11795;47.054;15.408;2023-03-03T04:36:00;97340;;;4.8;88.0
23253;BME280;11795;47.054;15.408;2023-03-03T04:38:00;97340;;;5.0;87.7
23253;BME280;11795;47.054;15.408;2023-03-03T04:40:00;97350;;;4.9;88.1
23253;BME280;11795;47.054;15.408;2023-03-03T04:42:00;97340;;;4.8;88.5
23253;BME280;11795;47.054;15.408;2023-03-03T04:44:00;97340;;;4.9;87.9
23253;BME280;11795;47.054;15.408;2023-03-03T04:46:00;97350;;;4.8;88.5
23253;BME280;11795;47.054;15.408;2023-03-03T04:48:00;97350;;;5.0;88.1
23253;BME280;11795;47.054;15.408;2023-03-03T04:50:00;97350;;;4.8;88.3
23253;BME280;11795;47.054;15.408;2023-03-03T04:52:00;97350;;;4.7;88.8
23253;BME280;11795;47.054;15.408;2023-03-03T04:54:00;97350;;;4.8;88.4
23253;BME280;11795;47.054;15.408;2023-03-03T04:56:01;97350;;;4.8;88.8
23253;BME280;11795;47.054;15.408;2023-03-03T04:58:00;97350;;;4.9;88.3
23253;BME280;11795;47.054;15.408;2023-03-03T05:00:00;97350;;;4.8;88.4
23253;BME280;11795;47.054;15.408;2023-03-03T05:02:00;97350;;;4.7;88.8
23253;BME280;11795;47.054;15.408;2023-03-03T05:04:00;97350;;;4.8;88.3
23253;BME280;11795;47.054;15.408;2023-03-03T05:06:00;97360;;;4.7;88.8
23253;BME280;11795;47.054;15.408;2023-03-03T05:08:00;97350;;;4.9;88.4
23253;BME280;11795;47.054;15.408;2023-03-03T05:10:01;97360;;;4.8;88.5
23253;BME280;11795;47.054;15.408;2023-03-03T05:12:00;97360;;;4.7;88.8
23253;BME280;11795;47.054;15.408;2023-03-03T05:14:02;97360;;;4.8;88.5
23253;BME280;11795;47.054;15.408;2023-03-03T05:16:00;97360;;;4.7;88.9
23253;BME280;11795;47.054;15.408;2023-03-03T05:18:00;97360;;;4.9;88.4
23253;BME280;11795;47.054;15.408;2023-03-03T05:20:00;97360;;;4.7;88.4
23253;BME280;11795;47.054;15.408;2023-03-03T05:22:01;97370;;;4.6;89.1
23253;BME280;11795;47.054;15.408;2023-03-03T05:24:00;97370;;;4.7;88.8
23253;BME280;11795;47.054;15.408;2023-03-03T05:26:00;97370;;;4.6;89.3
23253;BME280;11795;47.054;15.408;2023-03-03T05:28:00;97370;;;4.8;88.8
23253;BME280;11795;47.054;15.408;2023-03-03T05:30:00;97370;;;4.8;88.8
23253;BME280;11795;47.054;15.408;2023-03-03T05:32:00;97370;;;4.6;89.2
23253;BME280;11795;47.054;15.408;2023-03-03T05:34:00;97370;;;4.7;89.0
23253;BME280;11795;47.054;15.408;2023-03-03T05:36:00;97370;;;4.7;89.4
23253;BME280;11795;47.054;15.408;2023-03-03T05:38:00;97370;;;4.8;89.2
23253;BME280;11795;47.054;15.408;2023-03-03T05:40:00;97380;;;4.7;89.6
23253;BME280;11795;47.054;15.408;2023-03-03T05:42:01;97380;;;4.6;90.1
23253;BME280;11795;47.054;15.408;2023-03-03T05:44:00;97380;;;4.7;89.9
23253;BME280;11795;47.054;15.408;2023-03-03T05:46:00;97380;;;4.6;90.4
23253;BME280;11795;47.054;15.408;2023-03-03T05:48:00;97380;;;4.8;90.2
23253;BME280;11795;47.054;15.408;2023-03-03T05:50:00;97380;;;4.7;90.3
23253;BME280;11795;47.054;15.408;2023-03-03T05:52:00;97380;;;4.7;90.6
23253;BME280;11795;47.054;15.408;2023-03-03T05:54:00;97380;;;4.8;90.1
23253;BME280;11795;47.054;15.408;2023-03-03T05:56:00;97390;;;4.7;90.5
23253;BME280;11795;47.054;15.408;2023-03-03T05:58:00;97380;;;4.9;90.1
23253;BME280;11795;47.054;15.408;2023-03-03T06:00:00;97390;;;4.8;90.4
23253;BME280;11795;47.054;15.408;2023-03-03T06:02:00;97390;;;4.7;90.8
23253;BME280;11795;47.054;15.408;2023-03-03T06:04:00;97390;;;4.8;90.4
23253;BME280;11795;47.054;15.408;2023-03-03T06:06:00;97390;;;4.7;90.9
23253;BME280;11795;47.054;15.408;2023-03-03T06:08:00;97390;;;5.0;90.6
23253;BME280;11795;47.054;15.408;2023-03-03T06:10:00;97390;;;4.8;90.6
23253;BME280;11795;47.054;15.408;2023-03-03T06:12:00;97390;;;4.8;91.0
23253;BME280;11795;47.054;15.408;2023-03-03T06:14:00;97390;;;4.9;90.6
23253;BME280;11795;47.054;15.408;2023-03-03T06:16:00;97390;;;4.9;91.0
23253;BME280;11795;47.054;15.408;2023-03-03T06:18:00;97390;;;5.1;90.6
23253;BME280;11795;47.054;15.408;2023-03-03T06:20:00;97390;;;5.0;90.4
23253;BME280;11795;47.054;15.408;2023-03-03T06:22:00;97400;;;4.9;90.6
23253;BME280;11795;47.054;15.408;2023-03-03T06:24:00;97400;;;5.1;90.1
23253;BME280;11795;47.054;15.408;2023-03-03T06:26:00;97400;;;5.0;90.4
23253;BME280;11795;47.054;15.408;2023-03-03T06:28:00;97400;;;5.3;90.0
23253;BME280;11795;47.054;15.408;2023-03-03T06:30:00;97410;;;5.1;90.0
23253;BME280;11795;47.054;15.408;2023-03-03T06:32:00;97410;;;5.1;90.3
23253;BME280;11795;47.054;15.408;2023-03-03T06:34:00;97410;;;5.2;89.6
23253;BME280;11795;47.054;15.408;2023-03-03T06:36:00;97410;;;5.1;90.0
23253;BME280;11795;47.054;15.408;2023-03-03T06:38:00;97420;;;5.4;89.6
23253;BME280;11795;47.054;15.408;2023-03-03T06:40:00;97420;;;5.2;89.6
23253;BME280;11795;47.054;15.408;2023-03-03T06:42:00;97420;;;5.2;90.0
23253;BME280;11795;47.054;15.408;2023-03-03T06:44:00;97430;;;5.4;89.2
23253;BME280;11795;47.054;15.408;2023-03-03T06:46:00;97430;;;5.3;89.5
23253;BME280;11795;47.054;15.408;2023-03-03T06:48:01;97430;;;5.5;89.1
23253;BME280;11795;47.054;15.408;2023-03-03T06:50:00;97430;;;5.3;89.1
23253;BME280;11795;47.054;15.408;2023-03-03T06:52:08;97430;;;5.3;89.6
23253;BME280;11795;47.054;15.408;2023-03-03T06:54:04;97430;;;5.5;88.9
23253;BME280;11795;47.054;15.408;2023-03-03T06:56:01;97440;;;5.4;89.3
23253;BME280;11795;47.054;15.408;2023-03-03T06:58:00;97440;;;5.6;89.0
23253;BME280;11795;47.054;15.408;2023-03-03T07:00:13;97440;;;5.5;88.9
23253;BME280;11795;47.054;15.408;2023-03-03T07:02:00;97450;;;5.5;89.3
23253;BME280;11795;47.054;15.408;2023-03-03T07:04:00;97450;;;5.6;88.9
23253;BME280;11795;47.054;15.408;2023-03-03T07:06:01;97450;;;5.5;89.4
23253;BME280;11795;47.054;15.408;2023-03-03T07:08:00;97450;;;5.7;89.0
23253;BME280;11795;47.054;15.408;2023-03-03T07:10:05;97450;;;5.6;88.9
23253;BME280;11795;47.054;15.408;2023-03-03T07:12:04;97460;;;5.6;88.7
23253;BME280;11795;47.054;15.408;2023-03-03T07:14:01;97460;;;5.7;88.0
23253;BME280;11795;47.054;15.408;2023-03-03T07:16:09;97470;;;5.6;88.7
23253;BME280;11795;47.054;15.408;2023-03-03T07:18:02;97470;;;5.8;88.6
23253;BME280;11795;47.054;15.408;2023-03-03T07:20:00;97470;;;5.7;88.6
23253;BME280;11795;47.054;15.408;2023-03-03T07:22:10;97480;;;5.6;89.0
23253;BME280;11795;47.054;15.408;2023-03-03T07:24:15;97480;;;5.8;88.4
23253;BME280;11795;47.054;15.408;2023-03-03T07:26:00;97480;;;5.7;88.8
23253;BME280;11795;47.054;15.408;2023-03-03T07:28:12;97480;;;5.9;88.4
23253;BME280;11795;47.054;15.408;2023-03-03T07:30:16;97480;;;5.8;88.3
23253;BME280;11795;47.054;15.408;2023-03-03T07:32:01;97480;;;5.8;88.6
23253;BME280;11795;47.054;15.408;2023-03-03T07:34:02;97480;;;5.9;87.9
23253;BME280;11795;47.054;15.408;2023-03-03T07:36:01;97480;;;5.8;88.3
23253;BME280;11795;47.054;15.408;2023-03-03T07:38:00;97490;;;6.0;87.9
23253;BME280;11795;47.054;15.408;2023-03-03T07:40:05;97480;;;5.9;88.0
23253;BME280;11795;47.054;15.408;2023-03-03T07:42:14;97480;;;5.9;88.4
23253;BME280;11795;47.054;15.408;2023-03-03T07:44:04;97470;;;6.1;87.9
23253;BME280;11795;47.054;15.408;2023-03-03T07:46:14;97470;;;6.0;87.9
23253;BME280;11795;47.054;15.408;2023-03-03T07:48:07;97470;;;6.2;86.8
23253;BME280;11795;47.054;15.408;2023-03-03T07:50:13;97470;;;6.1;86.7
23253;BME280;11795;47.054;15.408;2023-03-03T07:52:16;97460;;;6.0;87.1
23253;BME280;11795;47.054;15.408;2023-03-03T07:54:14;97470;;;6.2;86.8
23253;BME280;11795;47.054;15.408;2023-03-03T07:56:01;97470;;;6.2;87.3
23253;BME280;11795;47.054;15.408;2023-03-03T07:58:16;97470;;;6.5;86.9
23253;BME280;11795;47.054;15.408;2023-03-03T08:02:00;97470;;;6.4;85.8
23253;BME280;11795;47.054;15.408;2023-03-03T08:04:00;97470;;;6.7;85.4
23253;BME280;11795;47.054;15.408;2023-03-03T08:06:10;97470;;;6.7;86.4
23253;BME280;11795;47.054;15.408;2023-03-03T08:08:11;97470;;;7.0;85.8
23253;BME280;11795;47.054;15.408;2023-03-03T08:10:01;97470;;;7.0;85.4
23253;BME280;11795;47.054;15.408;2023-03-03T08:12:15;97470;;;7.0;85.0
23253;BME280;11795;47.054;15.408;2023-03-03T08:14:00;97470;;;7.2;84.3
23253;BME280;11795;47.054;15.408;2023-03-03T08:16:03;97470;;;7.1;84.3
23253;BME280;11795;47.054;15.408;2023-03-03T08:18:00;97470;;;7.3;84.0
23253;BME280;11795;47.054;15.408;2023-03-03T08:20:00;97480;;;7.2;83.7
23253;BME280;11795;47.054;15.408;2023-03-03T08:22:08;97480;;;7.2;83.8
23253;BME280;11795;47.054;15.408;2023-03-03T08:24:00;97470;;;7.4;82.8
23253;BME280;11795;47.054;15.408;2023-03-03T08:26:00;97480;;;7.3;82.9
23253;BME280;11795;47.054;15.408;2023-03-03T08:28:00;97470;;;7.6;82.5
23253;BME280;11795;47.054;15.408;2023-03-03T08:30:00;97480;;;7.4;81.8
23253;BME280;11795;47.054;15.408;2023-03-03T08:32:00;97480;;;7.6;82.3
23253;BME280;11795;47.054;15.408;2023-03-03T08:34:00;97470;;;7.9;81.5
23253;BME280;11795;47.054;15.408;2023-03-03T08:36:00;97480;;;8.1;81.5
23253;BME280;11795;47.054;15.408;2023-03-03T08:38:00;97470;;;8.5;79.6
23253;BME280;11795;47.054;15.408;2023-03-03T08:40:00;97480;;;8.4;78.2
23253;BME280;11795;47.054;15.408;2023-03-03T08:42:00;97480;;;8.4;78.2
23253;BME280;11795;47.054;15.408;2023-03-03T08:44:00;97480;;;8.5;76.1
23253;BME280;11795;47.054;15.408;2023-03-03T08:46:01;97490;;;8.2;76.9
23253;BME280;11795;47.054;15.408;2023-03-03T08:48:01;97490;;;8.4;77.3
23253;BME280;11795;47.054;15.408;2023-03-03T08:50:00;97490;;;8.3;77.6
23253;BME280;11795;47.054;15.408;2023-03-03T08:52:00;97490;;;8.2;77.8
23253;BME280;11795;47.054;15.408;2023-03-03T08:54:00;97490;;;8.4;77.0
23253;BME280;11795;47.054;15.408;2023-03-03T08:56:00;97500;;;8.2;77.4
23253;BME280;11795;47.054;15.408;2023-03-03T08:58:00;97490;;;8.5;77.0
23253;BME280;11795;47.054;15.408;2023-03-03T09:00:00;97490;;;8.4;76.8
23253;BME280;11795;47.054;15.408;2023-03-03T09:02:00;97490;;;8.4;75.9
23253;BME280;11795;47.054;15.408;2023-03-03T09:04:00;97490;;;8.5;75.6
23253;BME280;11795;47.054;15.408;2023-03-03T09:06:00;97490;;;8.5;75.8
23253;BME280;11795;47.054;15.408;2023-03-03T09:08:01;97490;;;8.8;75.4
23253;BME280;11795;47.054;15.408;2023-03-03T09:10:00;97490;;;8.8;73.2
23253;BME280;11795;47.054;15.408;2023-03-03T09:12:12;97490;;;8.8;73.4
23253;BME280;11795;47.054;15.408;2023-03-03T09:14:06;97480;;;9.1;73.6
23253;BME280;11795;47.054;15.408;2023-03-03T09:16:00;97480;;;9.3;73.2
23253;BME280;11795;47.054;15.408;2023-03-03T09:18:12;97480;;;9.8;71.7
23253;BME280;11795;47.054;15.408;2023-03-03T09:22:10;97480;;;10.4;70.3
23253;BME280;11795;47.054;15.408;2023-03-03T09:24:00;97480;;;10.7;65.6
23253;BME280;11795;47.054;15.408;2023-03-03T09:26:15;97480;;;10.8;66.0
23253;BME280;11795;47.054;15.408;2023-03-03T09:28:01;97480;;;11.2;66.1
23253;BME280;11795;47.054;15.408;2023-03-03T09:30:02;97480;;;11.4;66.3
23253;BME280;11795;47.054;15.408;2023-03-03T09:32:12;97480;;;11.7;64.7
23253;BME280;11795;47.054;15.408;2023-03-03T09:34:01;97470;;;12.1;63.7
23253;BME280;11795;47.054;15.408;2023-03-03T09:36:10;97480;;;12.2;61.7
23253;BME280;11795;47.054;15.408;2023-03-03T09:38:10;97470;;;12.5;59.5
23253;BME280;11795;47.054;15.408;2023-03-03T09:40:18;97480;;;12.5;59.0
23253;BME280;11795;47.054;15.408;2023-03-03T09:44:14;97480;;;12.6;57.3
23253;BME280;11795;47.054;15.408;2023-03-03T09:46:03;97480;;;12.2;58.8
23253;BME280;11795;47.054;15.408;2023-03-03T09:48:16;97480;;;12.4;59.1
23253;BME280;11795;47.054;15.408;2023-03-03T09:50:08;97480;;;12.5;58.1
23253;BME280;11795;47.054;15.408;2023-03-03T09:52:09;97490;;;12.6;57.2
23253;BME280;11795;47.054;15.408;2023-03-03T09:54:11;97480;;;12.6;56.6
23253;BME280;11795;47.054;15.408;2023-03-03T09:56:07;97480;;;12.7;57.3
23253;BME280;11795;47.054;15.408;2023-03-03T09:58:18;97480;;;12.9;55.9
23253;BME280;11795;47.054;15.408;2023-03-03T10:00:15;97480;;;12.7;53.2
23253;BME280;11795;47.054;15.408;2023-03-03T10:02:19;97490;;;12.5;54.6
23253;BME280;11795;47.054;15.408;2023-03-03T10:04:15;97480;;;12.7;54.1
23253;BME280;11795;47.054;15.408;2023-03-03T10:06:07;97480;;;12.6;53.6
23253;BME280;11795;47.054;15.408;2023-03-03T10:08:14;97480;;;13.0;53.8
23253;BME280;11795;47.054;15.408;2023-03-03T10:10:15;97470;;;13.1;53.3
23253;BME280;11795;47.054;15.408;2023-03-03T10:12:05;97480;;;13.2;53.3
23253;BME280;11795;47.054;15.408;2023-03-03T10:14:12;97480;;;13.3;52.5
23253;BME280;11795;47.054;15.408;2023-03-03T10:16:13;97480;;;13.3;52.8
23253;BME280;11795;47.054;15.408;2023-03-03T10:18:12;97470;;;13.6;52.2
23253;BME280;11795;47.054;15.408;2023-03-03T10:20:15;97470;;;13.5;51.0
23253;BME280;11795;47.054;15.408;2023-03-03T10:22:06;97470;;;13.4;52.7
23253;BME280;11795;47.054;15.408;2023-03-03T10:24:09;97470;;;13.8;51.1
23253;BME280;11795;47.054;15.408;2023-03-03T10:26:07;97470;;;14.1;51.6
23253;BME280;11795;47.054;15.408;2023-03-03T10:28:16;97470;;;14.5;50.9
23253;BME280;11795;47.054;15.408;2023-03-03T10:30:07;97470;;;14.6;49.6
23253;BME280;11795;47.054;15.408;2023-03-03T10:32:18;97460;;;14.6;49.3
23253;BME280;11795;47.054;15.408;2023-03-03T10:34:07;97460;;;14.8;48.6
23253;BME280;11795;47.054;15.408;2023-03-03T10:36:09;97460;;;14.9;49.5
23253;BME280;11795;47.054;15.408;2023-03-03T10:38:14;97460;;;15.2;49.9
23253;BME280;11795;47.054;15.408;2023-03-03T10:40:08;97460;;;15.3;48.5
23253;BME280;11795;47.054;15.408;2023-03-03T10:42:08;97450;;;15.3;48.3
23253;BME280;11795;47.054;15.408;2023-03-03T10:44:14;97450;;;15.5;47.0
23253;BME280;11795;47.054;15.408;2023-03-03T10:48:12;97450;;;15.5;46.8
23253;BME280;11795;47.054;15.408;2023-03-03T10:50:09;97460;;;15.2;47.3
23253;BME280;11795;47.054;15.408;2023-03-03T10:52:14;97450;;;14.9;47.0
23253;BME280;11795;47.054;15.408;2023-03-03T10:54:12;97450;;;14.4;47.6
23253;BME280;11795;47.054;15.408;2023-03-03T10:56:11;97450;;;14.3;47.3
23253;BME280;11795;47.054;15.408;2023-03-03T10:58:15;97440;;;14.7;48.6
23253;BME280;11795;47.054;15.408;2023-03-03T11:00:16;97440;;;15.1;48.2
23253;BME280;11795;47.054;15.408;2023-03-03T11:02:07;97440;;;15.3;47.6
23253;BME280;11795;47.054;15.408;2023-03-03T11:04:06;97440;;;15.2;46.7
23253;BME280;11795;47.054;15.408;2023-03-03T11:06:04;97440;;;15.1;46.8
23253;BME280;11795;47.054;15.408;2023-03-03T11:08:02;97440;;;14.8;47.0
23253;BME280;11795;47.054;15.408;2023-03-03T11:10:13;97440;;;14.6;47.8
23253;BME280;11795;47.054;15.408;2023-03-03T11:12:08;97440;;;14.5;47.7
23253;BME280;11795;47.054;15.408;2023-03-03T11:14:05;97430;;;14.6;46.7
23253;BME280;11795;47.054;15.408;2023-03-03T11:16:12;97430;;;14.6;47.6
23253;BME280;11795;47.054;15.408;2023-03-03T11:18:06;97430;;;14.7;48.3
23253;BME280;11795;47.054;15.408;2023-03-03T11:20:03;97430;;;15.1;48.3
23253;BME280;11795;47.054;15.408;2023-03-03T11:22:09;97430;;;15.5;48.1
23253;BME280;11795;47.054;15.408;2023-03-03T11:24:14;97420;;;15.9;46.6
23253;BME280;11795;47.054;15.408;2023-03-03T11:26:07;97420;;;15.8;46.5
23253;BME280;11795;47.054;15.408;2023-03-03T11:28:14;97420;;;16.1;46.1
23253;BME280;11795;47.054;15.408;2023-03-03T11:30:08;97420;;;16.1;44.2
23253;BME280;11795;47.054;15.408;2023-03-03T11:32:07;97420;;;15.7;44.7
23253;BME280;11795;47.054;15.408;2023-03-03T11:34:07;97420;;;15.6;45.9